createdAt,value
2022-12-17T00:00:42.399Z,-4.39
2022-12-17T00:03:29.936Z,-4.53
2022-12-17T00:06:17.251Z,-4.48
2022-12-17T00:09:03.003Z,-4.39
2022-12-17T00:11:49.113Z,-4.44
2022-12-17T00:14:35.185Z,-4.47
2022-12-17T00:17:21.158Z,-4.45
2022-12-17T00:20:07.044Z,-4.47
2022-12-17T00:22:54.292Z,-4.53
2022-12-17T00:25:40.333Z,-4.61
2022-12-17T00:28:29.781Z,-4.46
2022-12-17T00:31:16.303Z,-4.59
2022-12-17T00:34:02.474Z,-4.61
2022-12-17T00:36:48.287Z,-4.47
2022-12-17T00:39:35.858Z,-4.53
2022-12-17T00:42:22.363Z,-4.55
2022-12-17T00:45:08.406Z,-4.53
2022-12-17T00:47:54.481Z,-4.50
2022-12-17T00:50:48.867Z,-4.64
2022-12-17T00:53:35.372Z,-4.64
2022-12-17T00:56:23.252Z,-4.57
2022-12-17T00:59:09.061Z,-4.45
2022-12-17T01:01:55.881Z,-4.50
2022-12-17T01:04:39.132Z,-4.63
2022-12-17T01:07:25.433Z,-4.66
2022-12-17T01:10:11.513Z,-4.62
2022-12-17T01:12:58.623Z,-4.64
2022-12-17T01:15:44.363Z,-4.66
2022-12-17T01:18:37.761Z,-4.61
2022-12-17T01:21:24.224Z,-4.60
2022-12-17T01:24:10.316Z,-4.67
2022-12-17T01:26:56.338Z,-4.71
2022-12-17T01:29:43.576Z,-4.75
2022-12-17T01:32:31.166Z,-4.78
2022-12-17T01:35:17.181Z,-4.91
2022-12-17T01:38:04.093Z,-4.88
2022-12-17T01:40:50.110Z,-4.94
2022-12-17T01:43:51.745Z,-4.90
2022-12-17T01:46:41.427Z,-5.11
2022-12-17T01:49:29.410Z,-5.11
2022-12-17T01:52:18.528Z,-5.00
2022-12-17T01:55:05.547Z,-4.88
2022-12-17T01:57:52.442Z,-4.97
2022-12-17T02:00:39.132Z,-4.90
2022-12-17T02:03:34.310Z,-4.87
2022-12-17T02:06:30.449Z,-5.02
2022-12-17T02:09:26.573Z,-4.90
2022-12-17T02:12:26.123Z,-4.92
2022-12-17T02:15:22.447Z,-5.00
2022-12-17T02:18:17.763Z,-4.94
2022-12-17T02:21:09.947Z,-4.97
2022-12-17T02:24:14.519Z,-5.02
2022-12-17T02:27:08.196Z,-5.22
2022-12-17T02:30:01.288Z,-5.32
2022-12-17T02:32:52.152Z,-5.27
2022-12-17T02:35:47.834Z,-5.13
2022-12-17T02:38:42.920Z,-5.16
2022-12-17T02:41:35.520Z,-5.18
2022-12-17T02:44:39.446Z,-5.18
2022-12-17T02:47:30.441Z,-5.18
2022-12-17T02:50:16.388Z,-5.21
2022-12-17T02:53:07.205Z,-5.25
2022-12-17T02:55:54.620Z,-5.31
2022-12-17T02:58:41.178Z,-5.36
2022-12-17T03:01:28.743Z,-5.46
2022-12-17T03:04:15.234Z,-5.39
2022-12-17T03:07:02.329Z,-5.38
2022-12-17T03:09:57.189Z,-5.38
2022-12-17T03:12:43.563Z,-5.40
2022-12-17T03:15:29.580Z,-5.37
2022-12-17T03:18:16.823Z,-5.38
2022-12-17T03:21:02.854Z,-5.30
2022-12-17T03:23:49.024Z,-5.30
2022-12-17T03:26:35.202Z,-5.29
2022-12-17T03:29:21.325Z,-5.20
2022-12-17T03:32:07.097Z,-5.23
2022-12-17T03:34:54.159Z,-5.38
2022-12-17T03:37:40.062Z,-5.40
2022-12-17T03:40:27.269Z,-5.42
2022-12-17T03:43:13.280Z,-5.43
2022-12-17T03:45:59.286Z,-5.40
2022-12-17T03:48:45.273Z,-5.47
2022-12-17T03:51:32.684Z,-5.45
2022-12-17T03:54:18.606Z,-5.50
2022-12-17T03:57:04.650Z,-5.64
2022-12-17T03:59:51.131Z,-5.60
2022-12-17T04:02:36.343Z,-5.54
2022-12-17T04:05:23.180Z,-5.55
2022-12-17T04:08:10.836Z,-5.59
2022-12-17T04:10:56.577Z,-5.59
2022-12-17T04:13:43.056Z,-5.54
2022-12-17T04:16:29.779Z,-5.55
2022-12-17T04:19:15.494Z,-5.59
2022-12-17T04:22:01.470Z,-5.60
2022-12-17T04:24:48.765Z,-5.64
2022-12-17T04:27:34.435Z,-5.58
2022-12-17T04:30:20.498Z,-5.62
2022-12-17T04:33:07.026Z,-5.73
2022-12-17T04:35:53.291Z,-5.91
2022-12-17T04:38:39.356Z,-6.00
2022-12-17T04:41:26.658Z,-6.02
2022-12-17T04:44:12.769Z,-5.96
2022-12-17T04:46:58.691Z,-5.79
2022-12-17T04:49:44.914Z,-5.66
2022-12-17T04:52:30.311Z,-5.71
2022-12-17T04:55:15.921Z,-5.71
2022-12-17T04:58:03.167Z,-5.85
2022-12-17T05:00:49.761Z,-5.89
2022-12-17T05:03:36.312Z,-5.90
2022-12-17T05:06:22.790Z,-5.83
2022-12-17T05:09:05.288Z,-5.93
2022-12-17T05:11:51.478Z,-6.00
2022-12-17T05:14:38.534Z,-6.01
2022-12-17T05:17:25.532Z,-5.99
2022-12-17T05:20:11.569Z,-5.98
2022-12-17T05:22:57.527Z,-5.94
2022-12-17T05:25:43.583Z,-6.20
2022-12-17T05:28:29.369Z,-6.13
2022-12-17T05:31:16.793Z,-6.18
2022-12-17T05:34:03.145Z,-6.23
2022-12-17T05:36:48.828Z,-6.26
2022-12-17T05:39:35.379Z,-6.21
2022-12-17T05:42:21.248Z,-6.10
2022-12-17T05:45:07.068Z,-6.11
2022-12-17T05:47:54.425Z,-6.18
2022-12-17T05:50:40.343Z,-6.05
2022-12-17T05:53:27.703Z,-6.01
2022-12-17T05:56:13.450Z,-6.27
2022-12-17T05:58:59.120Z,-6.21
2022-12-17T06:01:45.230Z,-6.05
2022-12-17T06:04:32.232Z,-6.11
2022-12-17T06:07:29.608Z,-6.13
2022-12-17T06:10:15.235Z,-6.12
2022-12-17T06:13:01.411Z,-6.27
2022-12-17T06:15:48.200Z,-6.25
2022-12-17T06:18:40.094Z,-6.24
2022-12-17T06:21:27.438Z,-6.37
2022-12-17T06:24:13.931Z,-6.37
2022-12-17T06:27:00.077Z,-6.42
2022-12-17T06:29:46.236Z,-6.53
2022-12-17T06:32:32.301Z,-6.44
2022-12-17T06:35:18.275Z,-6.47
2022-12-17T06:38:05.607Z,-6.37
2022-12-17T06:40:52.005Z,-6.51
2022-12-17T06:43:39.162Z,-6.71
2022-12-17T06:46:25.298Z,-6.80
2022-12-17T06:49:11.194Z,-6.91
2022-12-17T06:51:57.223Z,-7.03
2022-12-17T06:54:46.959Z,-7.02
2022-12-17T06:57:36.525Z,-7.02
2022-12-17T07:00:27.742Z,-7.04
2022-12-17T07:03:15.014Z,-7.23
2022-12-17T07:06:01.521Z,-7.15
2022-12-17T07:08:47.979Z,-7.18
2022-12-17T07:11:35.175Z,-7.35
2022-12-17T07:14:21.274Z,-7.40
2022-12-17T07:17:07.209Z,-7.51
2022-12-17T07:19:53.158Z,-7.68
2022-12-17T07:22:39.158Z,-8.09
2022-12-17T07:25:26.238Z,-8.40
2022-12-17T07:28:14.675Z,-8.68
2022-12-17T07:31:01.230Z,-8.97
2022-12-17T07:33:47.626Z,-9.25
2022-12-17T07:36:33.477Z,-9.40
2022-12-17T07:39:19.427Z,-9.64
2022-12-17T07:42:05.468Z,-9.74
2022-12-17T07:44:52.529Z,-9.80
2022-12-17T07:47:38.527Z,-9.53
2022-12-17T07:50:25.302Z,-9.18
2022-12-17T07:53:18.717Z,-9.08
2022-12-17T07:56:05.077Z,-8.85
2022-12-17T07:58:51.240Z,-8.48
2022-12-17T08:01:38.737Z,-7.96
2022-12-17T08:04:25.533Z,-7.31
2022-12-17T08:07:14.172Z,-6.69
2022-12-17T08:10:00.531Z,-6.84
2022-12-17T08:12:43.049Z,-7.27
2022-12-17T08:15:29.092Z,-7.88
2022-12-17T08:18:24.488Z,-8.35
2022-12-17T08:21:12.287Z,-8.37
2022-12-17T08:23:58.147Z,-8.45
2022-12-17T08:26:47.916Z,-8.09
2022-12-17T08:29:34.767Z,-8.05
2022-12-17T08:32:21.059Z,-7.92
2022-12-17T08:35:08.579Z,-7.85
2022-12-17T08:37:54.896Z,-7.76
2022-12-17T08:40:41.261Z,-7.58
2022-12-17T08:43:27.360Z,-7.35
2022-12-17T08:46:13.698Z,-7.15
2022-12-17T08:48:59.728Z,-7.28
2022-12-17T08:51:43.326Z,-7.21
2022-12-17T08:54:29.650Z,-7.00
2022-12-17T08:57:30.854Z,-6.65
2022-12-17T09:00:18.162Z,-6.42
2022-12-17T09:03:04.228Z,-6.56
2022-12-17T09:06:02.015Z,-6.43
2022-12-17T09:08:49.559Z,-6.50
2022-12-17T09:11:35.750Z,-6.52
2022-12-17T09:14:21.577Z,-6.55
2022-12-17T09:17:08.000Z,-6.52
2022-12-17T09:19:54.230Z,-6.64
2022-12-17T09:22:40.277Z,-6.72
2022-12-17T09:25:27.993Z,-6.62
2022-12-17T09:28:18.111Z,-6.35
2022-12-17T09:31:04.131Z,-6.04
2022-12-17T09:33:50.617Z,-6.19
2022-12-17T09:36:36.669Z,-6.15
2022-12-17T09:39:23.043Z,-6.17
2022-12-17T09:42:24.867Z,-6.56
2022-12-17T09:45:23.211Z,-6.37
2022-12-17T09:48:22.851Z,-6.41
2022-12-17T09:51:11.315Z,-6.52
2022-12-17T09:54:03.802Z,-6.48
2022-12-17T09:56:51.394Z,-6.66
2022-12-17T09:59:42.318Z,-6.78
2022-12-17T10:02:33.875Z,-6.60
2022-12-17T10:05:22.704Z,-6.42
2022-12-17T10:08:10.631Z,-6.30
2022-12-17T10:11:03.321Z,-6.47
2022-12-17T10:13:50.012Z,-6.18
2022-12-17T10:16:50.736Z,-6.09
2022-12-17T10:19:49.633Z,-5.92
2022-12-17T10:22:39.486Z,-5.97
2022-12-17T10:25:38.926Z,-6.07
2022-12-17T10:28:25.990Z,-6.25
2022-12-17T10:31:12.632Z,-6.07
2022-12-17T10:34:00.276Z,-6.02
2022-12-17T10:36:48.064Z,-5.72
2022-12-17T10:39:42.645Z,-5.48
2022-12-17T10:42:39.618Z,-5.48
2022-12-17T10:45:44.439Z,-5.53
2022-12-17T10:48:39.691Z,-5.48
2022-12-17T10:51:40.046Z,-5.20
2022-12-17T10:54:46.971Z,-5.00
2022-12-17T10:57:56.057Z,-4.96
2022-12-17T11:00:49.817Z,-4.86
2022-12-17T11:04:19.778Z,-4.87
2022-12-17T11:07:14.151Z,-4.77
2022-12-17T11:10:09.512Z,-4.80
2022-12-17T11:13:17.671Z,-4.80
2022-12-17T11:16:08.012Z,-4.92
2022-12-17T11:19:07.385Z,-4.65
2022-12-17T11:22:00.458Z,-4.65
2022-12-17T11:24:56.456Z,-4.67
2022-12-17T11:27:47.890Z,-4.50
2022-12-17T11:30:35.803Z,-4.65
2022-12-17T11:33:36.112Z,-4.55
2022-12-17T11:36:38.749Z,-4.40
2022-12-17T11:39:38.874Z,-4.42
2022-12-17T11:42:37.339Z,-4.27
2022-12-17T11:45:37.916Z,-4.17
2022-12-17T11:48:34.350Z,-4.24
2022-12-17T11:51:30.565Z,-4.10
2022-12-17T11:54:26.672Z,-4.09
2022-12-17T11:57:26.891Z,-4.07
2022-12-17T12:00:21.212Z,-3.86
2022-12-17T12:03:35.159Z,-3.92
2022-12-17T12:06:32.478Z,-3.92
2022-12-17T12:09:34.168Z,-3.84
2022-12-17T12:12:33.815Z,-3.77
2022-12-17T12:15:38.369Z,-3.74
2022-12-17T12:18:33.437Z,-3.60
2022-12-17T12:21:47.314Z,-3.27
2022-12-17T12:25:08.344Z,-2.46
2022-12-17T12:28:06.516Z,0.44
2022-12-17T12:31:00.655Z,2.03
2022-12-17T12:33:59.602Z,3.90
2022-12-17T12:36:46.562Z,4.68
2022-12-17T12:39:42.957Z,5.54
2022-12-17T12:42:39.884Z,4.48
2022-12-17T12:46:00.731Z,4.81
2022-12-17T12:49:01.353Z,4.00
2022-12-17T12:51:50.293Z,4.65
2022-12-17T12:54:49.771Z,5.16
2022-12-17T12:57:48.354Z,4.46
2022-12-17T13:00:52.676Z,4.28
2022-12-17T13:03:46.792Z,3.31
2022-12-17T13:06:44.735Z,3.04
2022-12-17T13:09:35.046Z,2.66
2022-12-17T13:12:33.424Z,3.10
2022-12-17T13:15:20.847Z,3.91
2022-12-17T13:18:04.876Z,4.90
2022-12-17T13:20:35.863Z,4.83
2022-12-17T13:23:28.418Z,4.22
2022-12-17T13:26:20.330Z,4.14
2022-12-17T13:29:13.127Z,4.54
2022-12-17T13:32:03.645Z,4.77
2022-12-17T13:34:49.711Z,4.15
2022-12-17T13:37:34.231Z,3.88
2022-12-17T13:40:21.235Z,2.63
2022-12-17T13:42:50.654Z,2.38
2022-12-17T13:45:24.731Z,3.46
2022-12-17T13:47:59.198Z,4.02
2022-12-17T13:50:35.300Z,4.30
2022-12-17T13:53:12.001Z,4.31
2022-12-17T13:55:42.033Z,4.03
2022-12-17T13:58:27.228Z,3.62
2022-12-17T14:01:08.253Z,3.76
2022-12-17T14:04:04.333Z,3.85
2022-12-17T14:06:30.470Z,3.95
2022-12-17T14:08:59.907Z,2.97
2022-12-17T14:11:47.357Z,3.06
2022-12-17T14:14:28.100Z,2.09
2022-12-17T14:16:57.269Z,2.20
2022-12-17T14:19:28.166Z,1.52
2022-12-17T14:21:57.784Z,1.10
2022-12-17T14:24:29.611Z,0.21
2022-12-17T14:27:01.810Z,-0.42
2022-12-17T14:29:33.420Z,-0.59
2022-12-17T14:32:21.781Z,-0.65
2022-12-17T14:34:51.343Z,-1.23
2022-12-17T14:37:28.467Z,-1.37
2022-12-17T14:40:05.197Z,-1.86
2022-12-17T14:42:38.321Z,-2.78
2022-12-17T14:45:23.919Z,-3.03
2022-12-17T14:47:58.257Z,-3.32
2022-12-17T14:50:32.560Z,-4.49
2022-12-17T14:53:03.620Z,-5.17
2022-12-17T14:55:37.864Z,-5.77
2022-12-17T14:58:26.356Z,-6.21
2022-12-17T15:01:05.277Z,-6.53
2022-12-17T15:03:39.717Z,-6.98
2022-12-17T15:06:11.613Z,-7.33
2022-12-17T15:08:42.957Z,-7.61
2022-12-17T15:11:13.227Z,-8.01
2022-12-17T15:13:43.040Z,-8.26
2022-12-17T15:16:11.875Z,-8.55
2022-12-17T15:18:41.002Z,-8.88
2022-12-17T15:21:13.100Z,-9.05
2022-12-17T15:23:45.630Z,-9.13
2022-12-17T15:26:15.251Z,-9.09
2022-12-17T15:28:45.876Z,-9.12
2022-12-17T15:31:19.516Z,-9.25
2022-12-17T15:33:50.551Z,-9.44
2022-12-17T15:36:20.324Z,-9.50
2022-12-17T15:38:48.981Z,-9.40
2022-12-17T15:41:35.134Z,-9.28
2022-12-17T15:44:05.038Z,-9.25
2022-12-17T15:46:33.704Z,-9.25
2022-12-17T15:49:02.507Z,-9.18
2022-12-17T15:51:31.273Z,-9.17
2022-12-17T15:54:00.770Z,-8.92
2022-12-17T15:56:30.088Z,-8.83
2022-12-17T15:58:59.409Z,-8.83
2022-12-17T16:01:29.353Z,-8.96
2022-12-17T16:03:59.199Z,-9.10
2022-12-17T16:06:27.493Z,-9.09
2022-12-17T16:08:56.213Z,-9.33
2022-12-17T16:11:24.858Z,-9.50
2022-12-17T16:13:55.601Z,-9.66
2022-12-17T16:16:24.610Z,-9.86
2022-12-17T16:18:54.780Z,-9.90
2022-12-17T16:21:23.396Z,-10.04
2022-12-17T16:23:52.100Z,-10.05
2022-12-17T16:26:20.753Z,-9.74
2022-12-17T16:28:49.378Z,-9.40
2022-12-17T16:31:18.006Z,-9.42
2022-12-17T16:33:48.250Z,-9.57
2022-12-17T16:36:21.869Z,-10.01
2022-12-17T16:38:52.738Z,-10.19
2022-12-17T16:41:22.962Z,-10.56
2022-12-17T16:43:51.648Z,-10.75
2022-12-17T16:46:29.946Z,-10.72
2022-12-17T16:49:00.789Z,-10.74
2022-12-17T16:51:30.639Z,-10.81
2022-12-17T16:53:59.930Z,-10.78
2022-12-17T16:56:31.856Z,-10.74
2022-12-17T16:59:07.862Z,-10.67
2022-12-17T17:01:38.529Z,-10.57
2022-12-17T17:04:08.106Z,-10.67
2022-12-17T17:06:45.141Z,-10.82
2022-12-17T17:09:15.383Z,-10.67
2022-12-17T17:11:49.495Z,-10.78
2022-12-17T17:14:20.206Z,-11.16
2022-12-17T17:16:48.880Z,-11.40
2022-12-17T17:19:17.519Z,-11.47
2022-12-17T17:21:52.824Z,-11.65
2022-12-17T17:24:25.495Z,-11.66
2022-12-17T17:26:55.335Z,-11.60
2022-12-17T17:29:23.855Z,-11.51
2022-12-17T17:32:09.966Z,-11.51
2022-12-17T17:34:40.109Z,-11.58
2022-12-17T17:37:10.480Z,-11.47
2022-12-17T17:39:38.828Z,-11.42
2022-12-17T17:42:07.668Z,-11.50
2022-12-17T17:44:37.259Z,-11.49
2022-12-17T17:47:06.025Z,-11.26
2022-12-17T17:49:34.779Z,-11.09
2022-12-17T17:52:11.920Z,-10.93
2022-12-17T17:54:42.054Z,-10.80
2022-12-17T17:57:11.774Z,-10.61
2022-12-17T17:59:40.588Z,-10.59
2022-12-17T18:02:11.223Z,-10.49
2022-12-17T18:04:40.582Z,-10.44
2022-12-17T18:07:25.228Z,-10.27
2022-12-17T18:09:55.738Z,-9.96
2022-12-17T18:12:41.976Z,-9.88
2022-12-17T18:15:14.778Z,-9.85
2022-12-17T18:17:45.828Z,-9.74
2022-12-17T18:20:14.825Z,-9.77
2022-12-17T18:22:43.609Z,-9.62
2022-12-17T18:25:13.383Z,-9.66
2022-12-17T18:27:42.645Z,-9.58
2022-12-17T18:30:12.123Z,-9.44
2022-12-17T18:32:40.783Z,-9.47
2022-12-17T18:35:10.249Z,-9.70
2022-12-17T18:37:38.935Z,-10.03
2022-12-17T18:40:09.397Z,-10.38
2022-12-17T18:42:56.355Z,-10.51
2022-12-17T18:45:25.108Z,-10.34
2022-12-17T18:47:53.723Z,-10.33
2022-12-17T18:50:22.084Z,-10.57
2022-12-17T18:52:50.763Z,-10.82
2022-12-17T18:55:19.586Z,-10.86
2022-12-17T18:57:49.325Z,-10.80
2022-12-17T19:00:18.218Z,-10.50
2022-12-17T19:02:46.936Z,-10.24
2022-12-17T19:05:15.678Z,-10.39
2022-12-17T19:07:44.369Z,-10.61
2022-12-17T19:10:13.092Z,-10.99
2022-12-17T19:12:41.719Z,-11.13
2022-12-17T19:15:12.227Z,-11.27
2022-12-17T19:17:40.923Z,-11.45
2022-12-17T19:20:10.893Z,-11.73
2022-12-17T19:22:39.649Z,-11.79
2022-12-17T19:25:08.641Z,-11.75
2022-12-17T19:27:37.084Z,-11.49
2022-12-17T19:30:06.756Z,-10.97
2022-12-17T19:32:36.530Z,-10.71
2022-12-17T19:35:05.615Z,-10.57
2022-12-17T19:37:34.315Z,-11.11
2022-12-17T19:40:02.646Z,-11.49
2022-12-17T19:42:37.024Z,-11.61
2022-12-17T19:45:06.911Z,-11.52
2022-12-17T19:47:36.596Z,-11.73
2022-12-17T19:50:06.427Z,-11.87
2022-12-17T19:52:35.267Z,-11.85
2022-12-17T19:55:04.004Z,-11.70
2022-12-17T19:57:34.805Z,-11.59
2022-12-17T20:00:03.269Z,-11.04
2022-12-17T20:02:42.589Z,-10.61
2022-12-17T20:05:11.512Z,-10.64
2022-12-17T20:07:41.461Z,-10.71
2022-12-17T20:10:10.304Z,-10.86
2022-12-17T20:12:39.034Z,-10.95
2022-12-17T20:15:08.409Z,-11.13
2022-12-17T20:17:37.039Z,-11.28
2022-12-17T20:20:08.451Z,-11.01
2022-12-17T20:22:37.260Z,-11.09
2022-12-17T20:25:09.366Z,-11.33
2022-12-17T20:27:37.770Z,-11.55
2022-12-17T20:30:08.073Z,-11.62
2022-12-17T20:32:37.492Z,-11.61
2022-12-17T20:35:08.937Z,-11.64
2022-12-17T20:37:37.653Z,-11.70
2022-12-17T20:40:07.953Z,-11.80
2022-12-17T20:42:36.705Z,-11.78
2022-12-17T20:45:05.955Z,-11.97
2022-12-17T20:47:34.565Z,-12.13
2022-12-17T20:50:03.228Z,-12.14
2022-12-17T20:52:33.221Z,-12.15
2022-12-17T20:55:01.893Z,-12.05
2022-12-17T20:57:30.437Z,-11.94
2022-12-17T20:59:59.432Z,-11.95
2022-12-17T21:02:28.452Z,-11.99
2022-12-17T21:04:57.220Z,-12.23
2022-12-17T21:07:25.599Z,-12.42
2022-12-17T21:09:55.423Z,-12.57
2022-12-17T21:12:44.065Z,-12.60
2022-12-17T21:15:12.720Z,-12.58
2022-12-17T21:17:41.024Z,-12.49
2022-12-17T21:20:10.725Z,-12.62
2022-12-17T21:22:41.267Z,-12.73
2022-12-17T21:25:11.514Z,-12.67
2022-12-17T21:27:39.811Z,-12.60
2022-12-17T21:30:13.436Z,-12.41
2022-12-17T21:32:42.279Z,-12.34
2022-12-17T21:35:11.327Z,-12.28
2022-12-17T21:37:39.933Z,-12.17
2022-12-17T21:40:12.714Z,-11.64
2022-12-17T21:43:00.577Z,-11.40
2022-12-17T21:45:29.592Z,-11.41
2022-12-17T21:47:59.062Z,-11.59
2022-12-17T21:50:27.683Z,-11.56
2022-12-17T21:52:56.308Z,-11.32
2022-12-17T21:55:27.259Z,-10.84
2022-12-17T21:57:55.637Z,-10.34
2022-12-17T22:00:24.308Z,-9.91
2022-12-17T22:02:52.913Z,-9.66
2022-12-17T22:05:21.786Z,-9.38
2022-12-17T22:07:51.262Z,-9.14
2022-12-17T22:10:44.738Z,-9.01
2022-12-17T22:13:29.642Z,-8.83
2022-12-17T22:15:58.012Z,-8.55
2022-12-17T22:18:26.790Z,-8.39
2022-12-17T22:20:59.381Z,-8.32
2022-12-17T22:23:27.929Z,-8.25
2022-12-17T22:25:56.676Z,-8.24
2022-12-17T22:28:26.449Z,-8.25
2022-12-17T22:31:12.562Z,-8.33
2022-12-17T22:34:01.806Z,-8.34
2022-12-17T22:38:41.682Z,-8.31
2022-12-17T22:43:06.694Z,-8.43
2022-12-17T22:44:41.940Z,-8.45
2022-12-17T22:45:17.705Z,-8.49
2022-12-17T22:47:46.800Z,-8.49
2022-12-17T22:50:15.471Z,-8.52
2022-12-17T22:52:44.604Z,-8.59
2022-12-17T22:55:13.326Z,-8.60
2022-12-17T22:57:42.174Z,-8.58
2022-12-17T23:00:22.100Z,-8.61
2022-12-17T23:02:54.118Z,-8.56
2022-12-17T23:05:23.713Z,-8.57
2022-12-17T23:07:52.985Z,-8.57
2022-12-17T23:10:22.376Z,-8.59
2022-12-17T23:12:54.265Z,-8.70
2022-12-17T23:15:29.062Z,-8.72
2022-12-17T23:18:01.166Z,-8.64
2022-12-17T23:20:32.284Z,-8.62
2022-12-17T23:23:01.418Z,-8.59
2022-12-17T23:25:30.475Z,-8.59
2022-12-17T23:27:59.207Z,-8.54
2022-12-17T23:30:29.259Z,-8.61
2022-12-17T23:32:57.634Z,-8.60
2022-12-17T23:35:25.991Z,-8.53
2022-12-17T23:37:54.357Z,-8.51
2022-12-17T23:40:23.168Z,-8.51
2022-12-17T23:42:51.810Z,-8.52
2022-12-17T23:45:20.346Z,-8.57
2022-12-17T23:47:50.011Z,-8.57
2022-12-17T23:50:18.654Z,-8.60
2022-12-17T23:52:47.319Z,-8.55
2022-12-17T23:55:15.952Z,-8.50
2022-12-17T23:57:44.325Z,-8.49
